Time;durP1;ratioP1;P1;durP2;ratioP2;P2;SDS_P1;SDS_P2;PMS_P1;PMS_P2;Temp;Humidity;BMP_temperature;BMP_pressure;BME280_temperature;BME280_humidity;BME280_pressure;Samples;Min_cycle;Max_cycle;Signal;HPM_P1;HPM_P2
2022/06/29 00:00:17;;;;;;;2.65;2.45;;;20.60;90.90;;;;;;5078626;28;20477;-79
2022/06/29 00:02:44;;;;;;;2.15;1.95;;;20.60;91.00;;;;;;5063145;28;20033;-80
2022/06/29 00:05:14;;;;;;;2.58;2.22;;;20.60;91.00;;;;;;5061156;28;20498;-80
2022/06/29 00:07:41;;;;;;;2.40;2.10;;;20.60;91.20;;;;;;5057758;28;20417;-79
2022/06/29 00:10:08;;;;;;;2.60;2.30;;;20.60;91.20;;;;;;5082686;28;20044;-80
2022/06/29 00:12:34;;;;;;;3.13;2.40;;;20.60;91.40;;;;;;5074968;28;20493;-79
2022/06/29 00:15:02;;;;;;;4.80;2.65;;;20.60;91.40;;;;;;5072452;28;20031;-79
2022/06/29 00:17:29;;;;;;;6.30;2.20;;;20.60;91.50;;;;;;5100886;28;20032;-80
2022/06/29 00:19:55;;;;;;;3.08;2.47;;;20.60;91.60;;;;;;5085430;28;20028;-80
2022/06/29 00:22:20;;;;;;;5.90;2.50;;;20.70;91.80;;;;;;5062533;28;20036;-81
2022/06/29 00:24:46;;;;;;;4.35;2.55;;;20.60;91.70;;;;;;5090896;28;20039;-79
2022/06/29 00:27:11;;;;;;;2.47;2.28;;;20.60;91.70;;;;;;5085328;28;20743;-79
2022/06/29 00:29:37;;;;;;;2.85;2.63;;;20.60;91.70;;;;;;5085885;28;20085;-79
2022/06/29 00:32:03;;;;;;;2.28;2.08;;;20.60;91.90;;;;;;5081299;28;20040;-79
2022/06/29 00:34:30;;;;;;;3.35;2.47;;;20.60;91.80;;;;;;5068616;28;20028;-79
2022/06/29 00:36:55;;;;;;;3.45;2.40;;;20.60;92.10;;;;;;5090163;28;20058;-80
2022/06/29 00:39:21;;;;;;;3.13;2.10;;;20.60;92.20;;;;;;5085069;28;20067;-81
2022/06/29 00:41:46;;;;;;;2.65;2.00;;;20.50;92.00;;;;;;5083367;28;20048;-80
2022/06/29 00:44:18;;;;;;;2.80;2.50;;;20.50;92.20;;;;;;5099991;28;20145;-80
2022/06/29 00:46:57;;;;;;;2.28;2.08;;;20.50;92.40;;;;;;5080260;28;20037;-80
2022/06/29 00:49:24;;;;;;;2.83;2.38;;;20.50;92.50;;;;;;5069381;28;20071;-79
2022/06/29 00:52:00;;;;;;;2.17;1.77;;;20.40;92.50;;;;;;5087178;28;20036;-79
2022/06/29 00:54:25;;;;;;;3.55;2.38;;;20.40;92.60;;;;;;5087890;28;20576;-81
2022/06/29 00:56:51;;;;;;;2.38;1.90;;;20.30;92.70;;;;;;5076920;28;20028;-79
2022/06/29 00:59:24;;;;;;;2.45;2.15;;;20.30;92.80;;;;;;5084497;28;20028;-79
2022/06/29 01:01:50;;;;;;;3.42;2.42;;;20.30;92.90;;;;;;5076854;28;20533;-79
2022/06/29 01:04:16;;;;;;;2.67;2.47;;;20.30;92.90;;;;;;5085201;28;20050;-80
2022/06/29 01:06:42;;;;;;;2.60;2.35;;;20.30;93.00;;;;;;5084017;28;20563;-80
2022/06/29 01:09:08;;;;;;;2.65;2.30;;;20.20;93.10;;;;;;5090674;28;20082;-79
2022/06/29 01:11:34;;;;;;;3.03;2.70;;;20.20;93.20;;;;;;5089677;28;20071;-80
2022/06/29 01:14:00;;;;;;;2.42;2.22;;;20.10;93.30;;;;;;5083400;28;20032;-80
2022/06/29 01:16:26;;;;;;;3.40;2.78;;;20.10;93.30;;;;;;5092352;28;20032;-79
2022/06/29 01:18:52;;;;;;;2.90;2.60;;;20.10;93.50;;;;;;5087008;28;20035;-79
2022/06/29 01:21:19;;;;;;;4.72;2.88;;;20.00;93.60;;;;;;5086384;28;20120;-79
2022/06/29 01:23:45;;;;;;;2.53;2.33;;;20.00;93.70;;;;;;5071995;28;20032;-80
2022/06/29 01:26:11;;;;;;;3.67;2.50;;;20.00;93.80;;;;;;5074804;28;20475;-79
2022/06/29 01:28:46;;;;;;;3.00;2.67;;;19.90;93.90;;;;;;5094371;28;20024;-79
2022/06/29 01:31:16;;;;;;;3.53;2.83;;;19.90;94.00;;;;;;5083819;28;20038;-80
2022/06/29 01:33:41;;;;;;;3.50;2.60;;;19.90;94.00;;;;;;5089537;28;20039;-79
2022/06/29 01:36:07;;;;;;;2.70;2.50;;;19.80;94.10;;;;;;5075892;28;20313;-78
2022/06/29 01:38:35;;;;;;;3.90;2.20;;;19.80;94.20;;;;;;5096093;28;20039;-80
2022/06/29 01:41:00;;;;;;;3.30;2.85;;;19.70;94.50;;;;;;5078424;28;20039;-79
2022/06/29 01:43:26;;;;;;;3.50;3.13;;;19.70;94.50;;;;;;5091355;28;20111;-80
2022/06/29 01:45:51;;;;;;;4.53;3.20;;;19.70;94.60;;;;;;5088789;28;20032;-79
2022/06/29 01:48:16;;;;;;;3.15;2.60;;;19.60;94.60;;;;;;5063057;28;20624;-80
2022/06/29 01:50:42;;;;;;;4.60;2.80;;;19.60;94.90;;;;;;5094389;28;20035;-80
2022/06/29 01:53:08;;;;;;;3.60;3.05;;;19.60;95.00;;;;;;5091694;28;20407;-80
2022/06/29 01:55:33;;;;;;;2.53;2.33;;;19.60;95.00;;;;;;5085124;28;20505;-79
2022/06/29 01:57:59;;;;;;;3.38;3.05;;;19.50;95.10;;;;;;5115122;27;20066;-79
2022/06/29 02:00:24;;;;;;;2.90;2.60;;;19.50;95.20;;;;;;5081538;28;20255;-80
2022/06/29 02:02:50;;;;;;;2.90;2.60;;;19.50;95.20;;;;;;5082402;28;20043;-80
2022/06/29 02:05:15;;;;;;;3.72;3.33;;;19.50;95.30;;;;;;5072003;28;20036;-80
2022/06/29 02:07:41;;;;;;;2.95;2.63;;;19.40;95.40;;;;;;5066304;28;20461;-79
2022/06/29 02:10:07;;;;;;;3.58;3.22;;;19.40;95.50;;;;;;5083960;28;20104;-80
2022/06/29 02:12:32;;;;;;;3.97;3.30;;;19.40;95.50;;;;;;5076208;28;20049;-79
2022/06/29 02:14:58;;;;;;;3.03;2.72;;;19.30;95.60;;;;;;5086711;28;20110;-79
2022/06/29 02:17:24;;;;;;;3.28;2.97;;;19.30;95.60;;;;;;5069974;28;20075;-80
2022/06/29 02:19:49;;;;;;;3.05;2.75;;;19.30;95.70;;;;;;5056825;28;20066;-79
2022/06/29 02:22:15;;;;;;;3.28;2.97;;;19.30;95.70;;;;;;5086595;28;20077;-79
2022/06/29 02:24:40;;;;;;;3.97;3.33;;;19.30;95.80;;;;;;5090157;28;20035;-78
2022/06/29 02:27:05;;;;;;;2.95;2.65;;;19.30;95.80;;;;;;5080412;28;20043;-79
2022/06/29 02:29:31;;;;;;;5.00;3.25;;;19.20;95.80;;;;;;5084858;28;20103;-79
2022/06/29 02:34:43;;;;;;;3.53;2.70;;;19.20;96.00;;;;;;5086141;28;20066;-79
2022/06/29 02:37:09;;;;;;;4.65;3.05;;;19.20;96.10;;;;;;5062091;28;20028;-80
2022/06/29 02:39:35;;;;;;;3.05;2.75;;;19.20;96.20;;;;;;5066879;28;20039;-80
2022/06/29 02:42:01;;;;;;;2.40;2.20;;;19.20;96.20;;;;;;5059772;28;20032;-80
2022/06/29 02:44:26;;;;;;;3.30;2.70;;;19.20;96.20;;;;;;5085350;28;20538;-80
2022/06/29 02:46:52;;;;;;;6.03;3.28;;;19.20;96.20;;;;;;5081962;28;20037;-79
2022/06/29 02:49:17;;;;;;;3.75;3.25;;;19.10;96.30;;;;;;5082360;28;20047;-79
2022/06/29 02:51:43;;;;;;;4.15;2.88;;;19.10;96.30;;;;;;5087485;28;20083;-79
2022/06/29 02:54:08;;;;;;;4.18;3.17;;;19.20;96.40;;;;;;5083098;28;20021;-80
2022/06/29 02:56:34;;;;;;;3.10;2.80;;;19.10;96.60;;;;;;5092635;28;20031;-79
2022/06/29 02:58:59;;;;;;;4.00;3.20;;;19.10;96.80;;;;;;5086562;28;20024;-79
2022/06/29 03:01:25;;;;;;;3.55;2.70;;;19.00;97.10;;;;;;5067468;28;20071;-79
2022/06/29 03:03:50;;;;;;;5.97;2.70;;;19.10;96.80;;;;;;5061660;28;20030;-79
2022/06/29 03:06:15;;;;;;;2.88;2.58;;;19.10;96.90;;;;;;5092378;28;20111;-80
2022/06/29 03:08:41;;;;;;;3.53;3.00;;;19.10;96.90;;;;;;5086507;28;20107;-79
2022/06/29 03:11:07;;;;;;;4.82;2.85;;;19.10;96.80;;;;;;5067558;28;20024;-80
2022/06/29 03:13:32;;;;;;;3.17;2.83;;;19.20;96.80;;;;;;5083905;28;20050;-79
2022/06/29 03:15:58;;;;;;;3.70;2.80;;;19.20;96.70;;;;;;5057351;28;20039;-80
2022/06/29 03:18:23;;;;;;;3.50;2.92;;;19.20;96.80;;;;;;5077598;28;20036;-79
2022/06/29 03:20:49;;;;;;;3.03;2.30;;;19.20;96.70;;;;;;5078178;28;20438;-79
2022/06/29 03:23:15;;;;;;;3.90;2.95;;;19.20;96.80;;;;;;5078849;28;20058;-80
2022/06/29 03:25:41;;;;;;;4.03;2.88;;;19.20;96.90;;;;;;5076717;28;20032;-79
2022/06/29 03:28:06;;;;;;;4.28;2.67;;;19.20;96.90;;;;;;5072189;28;20031;-80
2022/06/29 03:30:32;;;;;;;3.80;2.75;;;19.30;96.90;;;;;;5094641;28;20070;-79
2022/06/29 03:32:57;;;;;;;3.60;2.80;;;19.40;96.80;;;;;;5075491;28;20035;-79
2022/06/29 03:35:23;;;;;;;3.22;2.60;;;19.40;96.80;;;;;;5072704;28;20035;-79
2022/06/29 03:37:50;;;;;;;5.70;2.45;;;19.40;96.70;;;;;;5086126;28;20028;-79
2022/06/29 03:40:16;;;;;;;4.13;2.60;;;19.50;96.70;;;;;;5065184;28;20032;-79
2022/06/29 03:42:41;;;;;;;3.40;2.38;;;19.60;96.70;;;;;;5086064;28;20041;-79
2022/06/29 03:45:07;;;;;;;5.70;2.90;;;19.60;96.50;;;;;;5076298;28;20047;-79
2022/06/29 03:47:33;;;;;;;3.35;2.50;;;19.60;96.50;;;;;;5086836;28;20050;-79
2022/06/29 03:49:59;;;;;;;5.05;3.47;;;19.60;96.50;;;;;;5066679;28;20031;-79
2022/06/29 03:52:24;;;;;;;3.13;2.80;;;19.70;96.40;;;;;;5088906;28;20530;-79
2022/06/29 03:54:50;;;;;;;4.80;2.80;;;19.70;96.30;;;;;;5080995;28;20541;-79
2022/06/29 03:57:15;;;;;;;4.70;2.83;;;19.80;96.30;;;;;;5072665;28;20103;-79
2022/06/29 03:59:41;;;;;;;2.70;2.15;;;19.70;96.30;;;;;;5075362;28;20473;-79
2022/06/29 04:02:07;;;;;;;5.97;2.65;;;19.70;96.30;;;;;;5060804;28;20055;-80
2022/06/29 04:04:32;;;;;;;3.25;2.75;;;19.80;96.30;;;;;;5078542;28;20035;-79
2022/06/29 04:06:58;;;;;;;2.50;2.30;;;19.90;96.20;;;;;;5072159;28;20127;-79
2022/06/29 04:09:23;;;;;;;2.85;2.53;;;19.80;96.30;;;;;;5056405;28;20044;-79
2022/06/29 04:11:49;;;;;;;5.82;2.50;;;19.90;96.30;;;;;;5072825;28;20466;-79
2022/06/29 04:14:26;;;;;;;3.72;2.60;;;19.90;96.30;;;;;;5082252;28;20032;-79
2022/06/29 04:16:53;;;;;;;2.47;2.28;;;19.90;96.30;;;;;;5074538;28;20050;-79
2022/06/29 04:19:19;;;;;;;2.95;2.60;;;19.90;96.40;;;;;;5086982;28;20061;-79
2022/06/29 04:21:45;;;;;;;2.90;2.40;;;19.90;96.30;;;;;;5072073;28;20047;-78
2022/06/29 04:24:11;;;;;;;2.25;2.05;;;19.90;96.30;;;;;;5067345;28;20143;-78
2022/06/29 04:26:37;;;;;;;3.65;3.00;;;19.90;96.30;;;;;;5083276;28;20029;-78
2022/06/29 04:29:02;;;;;;;4.65;2.42;;;19.90;96.50;;;;;;5082725;28;20032;-78
2022/06/29 04:31:28;;;;;;;5.05;2.92;;;19.90;96.50;;;;;;5097838;28;20093;-78
2022/06/29 04:33:53;;;;;;;5.22;2.80;;;19.90;96.60;;;;;;5090376;28;20116;-79
2022/06/29 04:36:19;;;;;;;3.80;2.88;;;19.90;96.50;;;;;;5074684;28;20043;-77
2022/06/29 04:38:45;;;;;;;3.92;2.65;;;20.00;96.40;;;;;;5071900;28;20177;-78
2022/06/29 04:41:11;;;;;;;4.50;3.28;;;20.00;96.50;;;;;;5072539;28;20430;-78
2022/06/29 04:43:37;;;;;;;3.13;2.83;;;19.90;96.70;;;;;;5089433;27;20063;-78
2022/06/29 04:46:21;;;;;;;3.33;2.75;;;19.90;96.70;;;;;;5082921;28;21099;-78
2022/06/29 04:48:56;;;;;;;2.95;2.53;;;20.00;96.60;;;;;;5076295;28;20111;-78
2022/06/29 04:51:22;;;;;;;4.95;2.90;;;20.10;96.60;;;;;;5078555;28;20025;-78
2022/06/29 04:53:48;;;;;;;3.30;3.00;;;20.20;96.40;;;;;;5085274;28;20500;-78
2022/06/29 04:56:15;;;;;;;4.43;2.92;;;20.20;96.60;;;;;;5073548;28;20036;-78
2022/06/29 04:58:41;;;;;;;3.53;2.95;;;20.30;96.50;;;;;;5085148;28;20509;-78
2022/06/29 05:01:07;;;;;;;4.90;3.35;;;20.30;96.40;;;;;;5088053;28;20059;-77
2022/06/29 05:03:33;;;;;;;3.42;3.13;;;20.40;96.40;;;;;;5084007;28;20040;-78
2022/06/29 05:05:59;;;;;;;3.78;2.88;;;20.40;96.30;;;;;;5084719;28;20024;-79
2022/06/29 05:08:24;;;;;;;3.60;3.13;;;20.50;96.40;;;;;;5082763;28;20039;-78
2022/06/29 05:10:50;;;;;;;6.47;3.28;;;20.50;96.40;;;;;;5085198;28;20566;-78
2022/06/29 05:13:15;;;;;;;3.60;2.70;;;20.60;96.30;;;;;;5071589;28;20484;-78
2022/06/29 05:15:41;;;;;;;3.30;2.53;;;20.60;96.20;;;;;;5080213;28;20028;-78
2022/06/29 05:18:06;;;;;;;6.47;3.50;;;20.70;96.20;;;;;;5081570;28;20520;-78
2022/06/29 05:20:32;;;;;;;4.03;2.92;;;20.80;96.50;;;;;;5078462;28;20028;-79
2022/06/29 05:22:58;;;;;;;3.20;2.78;;;20.90;96.30;;;;;;5078877;28;20036;-78
2022/06/29 05:25:24;;;;;;;3.97;3.08;;;21.00;96.20;;;;;;5085372;28;20032;-79
2022/06/29 05:27:49;;;;;;;4.10;3.20;;;21.00;96.10;;;;;;5086246;28;20024;-80
2022/06/29 05:30:15;;;;;;;3.70;3.25;;;21.10;96.10;;;;;;5072650;28;20034;-78
2022/06/29 05:32:42;;;;;;;3.53;3.08;;;21.10;96.00;;;;;;5059343;28;20044;-78
2022/06/29 05:35:08;;;;;;;3.90;3.17;;;21.00;96.20;;;;;;5090231;28;20033;-78
2022/06/29 05:37:34;;;;;;;5.22;3.17;;;21.00;96.30;;;;;;5102161;28;20031;-77
2022/06/29 05:40:00;;;;;;;3.75;3.28;;;21.00;96.10;;;;;;5083823;28;20069;-79
2022/06/29 05:42:26;;;;;;;4.95;3.20;;;21.10;96.20;;;;;;5085780;28;20493;-78
2022/06/29 05:44:52;;;;;;;5.18;3.42;;;21.10;96.20;;;;;;5088890;28;20046;-81
2022/06/29 05:47:18;;;;;;;6.55;3.30;;;21.10;96.30;;;;;;5089004;28;20075;-77
2022/06/29 05:49:43;;;;;;;4.00;3.05;;;21.10;96.30;;;;;;5089479;28;20028;-78
2022/06/29 05:52:09;;;;;;;5.97;3.20;;;21.00;96.40;;;;;;5089667;28;20040;-78
2022/06/29 05:54:34;;;;;;;3.45;2.95;;;21.10;96.50;;;;;;5072105;28;20393;-77
2022/06/29 05:57:00;;;;;;;3.92;3.15;;;21.10;96.50;;;;;;5073318;28;20474;-81
2022/06/29 05:59:26;;;;;;;3.85;3.53;;;21.10;96.60;;;;;;5101194;28;20043;-81
2022/06/29 06:01:51;;;;;;;7.38;3.75;;;21.20;96.70;;;;;;5092758;28;20043;-78
2022/06/29 06:04:17;;;;;;;4.20;3.78;;;21.20;96.60;;;;;;5074885;28;20124;-77
2022/06/29 06:06:42;;;;;;;5.55;3.85;;;21.20;96.80;;;;;;5106218;28;20031;-82
2022/06/29 06:09:08;;;;;;;5.53;3.58;;;21.20;96.70;;;;;;5112479;28;20032;-78
2022/06/29 06:11:34;;;;;;;3.97;3.58;;;21.20;96.80;;;;;;5097398;28;20153;-78
2022/06/29 06:14:00;;;;;;;4.53;3.40;;;21.20;96.80;;;;;;5075930;28;20049;-78
2022/06/29 06:16:25;;;;;;;5.10;4.55;;;21.20;96.90;;;;;;5091626;28;20027;-80
2022/06/29 06:18:51;;;;;;;4.18;3.78;;;21.20;97.00;;;;;;5105400;28;20128;-80
2022/06/29 06:21:16;;;;;;;5.22;3.25;;;21.20;97.10;;;;;;5100749;28;20040;-77
2022/06/29 06:23:42;;;;;;;4.47;4.05;;;21.30;97.50;;;;;;5093671;28;20039;-80
2022/06/29 06:26:07;;;;;;;4.70;3.70;;;21.30;97.20;;;;;;5092158;28;20105;-77
2022/06/29 06:28:33;;;;;;;6.57;4.15;;;21.30;97.30;;;;;;5082249;28;20122;-77
2022/06/29 06:30:58;;;;;;;5.85;4.88;;;21.40;97.10;;;;;;5128533;27;20032;-77
2022/06/29 06:33:24;;;;;;;5.43;3.78;;;21.50;97.20;;;;;;5106460;28;20413;-81
2022/06/29 06:35:49;;;;;;;6.72;3.83;;;21.50;97.10;;;;;;5091759;28;20028;-78
2022/06/29 06:38:15;;;;;;;6.50;4.22;;;21.60;97.10;;;;;;5099758;28;20031;-78
2022/06/29 06:43:25;;;;;;;5.38;4.38;;;21.80;96.80;;;;;;5110971;28;20112;-78
2022/06/29 06:45:50;;;;;;;4.85;4.38;;;21.90;96.80;;;;;;5097069;28;20107;-77
2022/06/29 06:48:16;;;;;;;6.10;4.47;;;21.90;96.70;;;;;;5093616;28;20042;-78
2022/06/29 06:50:42;;;;;;;6.97;4.53;;;21.90;96.70;;;;;;5091229;28;20178;-77
2022/06/29 06:53:07;;;;;;;5.68;5.10;;;22.00;97.20;;;;;;5091907;28;20552;-77
2022/06/29 06:55:33;;;;;;;4.88;4.38;;;22.00;96.80;;;;;;5100380;28;20032;-78
2022/06/29 06:57:58;;;;;;;5.13;4.63;;;22.10;96.60;;;;;;5092127;28;20523;-77
2022/06/29 07:00:23;;;;;;;8.65;4.70;;;22.20;96.50;;;;;;5092685;28;20032;-80
2022/06/29 07:02:49;;;;;;;5.72;4.15;;;22.20;96.60;;;;;;5091744;28;20032;-77
2022/06/29 07:05:15;;;;;;;6.03;4.97;;;22.30;96.60;;;;;;5101105;28;20107;-78
2022/06/29 07:07:41;;;;;;;5.72;4.00;;;22.20;96.40;;;;;;5111306;28;20073;-78
2022/06/29 07:10:06;;;;;;;8.95;4.57;;;22.30;96.80;;;;;;5107591;28;20023;-79
2022/06/29 07:12:32;;;;;;;7.38;4.47;;;22.40;96.40;;;;;;5092131;28;20123;-81
2022/06/29 07:14:58;;;;;;;7.20;5.15;;;22.30;96.40;;;;;;5098293;28;20023;-76
2022/06/29 07:17:23;;;;;;;9.15;4.32;;;22.30;96.60;;;;;;5111458;28;20035;-78
2022/06/29 07:19:49;;;;;;;10.65;4.35;;;22.30;96.60;;;;;;5111692;27;20020;-77
2022/06/29 07:22:15;;;;;;;4.03;3.63;;;22.40;96.50;;;;;;5089689;28;20036;-81
2022/06/29 07:24:40;;;;;;;4.03;3.63;;;22.40;96.20;;;;;;5080238;28;20027;-76
2022/06/29 07:27:06;;;;;;;5.30;3.75;;;22.40;96.40;;;;;;5089858;28;20024;-78
2022/06/29 07:29:31;;;;;;;3.70;3.38;;;22.40;96.00;;;;;;5101449;28;20032;-78
2022/06/29 07:31:57;;;;;;;6.07;3.63;;;22.40;96.20;;;;;;5101468;28;20038;-78
2022/06/29 07:34:22;;;;;;;4.45;3.70;;;22.30;96.00;;;;;;5092942;28;20349;-77
2022/06/29 07:36:48;;;;;;;3.42;2.95;;;22.30;96.30;;;;;;5095471;28;20028;-80
2022/06/29 07:39:13;;;;;;;3.67;2.92;;;22.30;96.10;;;;;;5093544;28;20080;-77
2022/06/29 07:41:38;;;;;;;3.05;2.75;;;22.30;96.00;;;;;;5111474;28;20032;-78
2022/06/29 07:44:05;;;;;;;3.75;3.08;;;22.20;96.10;;;;;;5101444;28;20175;-78
2022/06/29 07:46:30;;;;;;;3.38;3.08;;;22.20;96.50;;;;;;5085171;28;20028;-77
2022/06/29 07:48:56;;;;;;;3.33;3.00;;;22.20;96.30;;;;;;5100630;28;20404;-77
2022/06/29 07:51:21;;;;;;;4.03;2.70;;;22.20;96.90;;;;;;5059004;28;20493;-81
2022/06/29 07:53:47;;;;;;;4.15;3.22;;;22.20;96.70;;;;;;5073641;28;20056;-78
2022/06/29 07:56:12;;;;;;;3.40;3.10;;;22.30;97.10;;;;;;5069559;28;20027;-83
2022/06/29 07:58:38;;;;;;;5.88;3.35;;;22.30;96.90;;;;;;5085222;28;20416;-80
2022/06/29 08:01:04;;;;;;;3.08;2.75;;;22.40;96.90;;;;;;5110842;28;20469;-79
2022/06/29 08:03:31;;;;;;;3.58;2.88;;;22.50;97.20;;;;;;5087542;28;20115;-79
2022/06/29 08:05:57;;;;;;;2.53;2.03;;;22.60;96.60;;;;;;5071448;28;20020;-79
2022/06/29 08:08:23;;;;;;;2.13;1.90;;;22.70;96.30;;;;;;5075194;28;20382;-83
2022/06/29 08:10:48;;;;;;;3.15;1.70;;;22.60;94.90;;;;;;5090389;28;20035;-82
2022/06/29 08:13:14;;;;;;;3.05;2.35;;;22.60;95.40;;;;;;5090559;28;20032;-80
2022/06/29 08:15:39;;;;;;;4.55;2.20;;;22.70;95.50;;;;;;5089680;28;20085;-79
2022/06/29 08:18:05;;;;;;;3.42;2.05;;;22.70;95.10;;;;;;5072017;28;20020;-80
2022/06/29 08:20:30;;;;;;;4.75;2.10;;;22.70;95.00;;;;;;5090176;28;20476;-81
2022/06/29 08:22:56;;;;;;;3.35;2.08;;;22.60;94.80;;;;;;5090041;28;20036;-82
2022/06/29 08:25:21;;;;;;;2.38;1.90;;;22.50;94.60;;;;;;5105205;28;20382;-82
2022/06/29 08:27:52;;;;;;;3.33;2.17;;;22.40;94.90;;;;;;5096807;28;20097;-79
2022/06/29 08:30:18;;;;;;;2.33;1.73;;;22.30;95.40;;;;;;5099473;28;20453;-79
2022/06/29 08:32:44;;;;;;;3.55;1.75;;;22.30;95.70;;;;;;5097513;28;20032;-79
2022/06/29 08:35:15;;;;;;;4.43;2.30;;;22.20;95.70;;;;;;5097749;28;20056;-79
2022/06/29 08:37:42;;;;;;;2.28;1.70;;;22.10;95.90;;;;;;5093262;28;20035;-79
2022/06/29 08:40:11;;;;;;;3.70;1.90;;;22.10;95.80;;;;;;5093928;28;20031;-79
2022/06/29 08:42:37;;;;;;;2.63;1.92;;;22.10;96.00;;;;;;5071353;28;20561;-79
2022/06/29 08:45:05;;;;;;;2.47;2.22;;;22.00;95.70;;;;;;5091316;28;20035;-79
2022/06/29 08:47:30;;;;;;;3.72;2.08;;;22.00;96.30;;;;;;5089348;28;20036;-79
2022/06/29 08:49:56;;;;;;;2.50;2.00;;;21.90;95.80;;;;;;5080205;28;20039;-79
2022/06/29 08:52:24;;;;;;;2.95;1.48;;;21.80;96.00;;;;;;5099261;28;20435;-79
2022/06/29 08:54:52;;;;;;;2.83;1.90;;;21.90;96.30;;;;;;5100932;28;20034;-80
2022/06/29 08:57:18;;;;;;;3.05;1.90;;;21.80;96.30;;;;;;5096489;28;20036;-79
2022/06/29 08:59:44;;;;;;;2.05;1.80;;;21.80;95.90;;;;;;5096185;28;20040;-79
2022/06/29 09:02:11;;;;;;;5.13;2.35;;;21.70;96.40;;;;;;5090492;28;20051;-83
2022/06/29 09:04:37;;;;;;;3.40;1.98;;;21.70;97.10;;;;;;5104315;28;20107;-79
2022/06/29 09:07:03;;;;;;;4.50;2.00;;;21.70;97.10;;;;;;5099494;28;20122;-81
2022/06/29 09:09:28;;;;;;;4.28;2.22;;;21.70;97.20;;;;;;5095890;28;20044;-80
2022/06/29 09:11:55;;;;;;;3.22;2.22;;;21.80;96.90;;;;;;5089153;28;20114;-79
2022/06/29 09:14:23;;;;;;;5.55;2.33;;;21.90;97.20;;;;;;5090500;28;20027;-80
2022/06/29 09:16:59;;;;;;;4.07;2.53;;;21.90;97.10;;;;;;5076426;28;20064;-79
2022/06/29 09:19:34;;;;;;;4.60;2.33;;;22.10;97.50;;;;;;5074834;28;20031;-79
2022/06/29 09:22:00;;;;;;;2.17;1.98;;;22.10;96.90;;;;;;5080931;28;20047;-78
2022/06/29 09:24:31;;;;;;;3.25;2.10;;;22.20;96.30;;;;;;5078277;28;20107;-82
2022/06/29 09:26:58;;;;;;;2.45;2.10;;;22.30;96.30;;;;;;5076837;28;20028;-79
2022/06/29 09:29:27;;;;;;;2.60;1.67;;;22.40;96.40;;;;;;5081924;28;20024;-79
2022/06/29 09:32:02;;;;;;;4.05;1.65;;;22.50;95.90;;;;;;5091143;28;20032;-79
2022/06/29 09:34:48;;;;;;;9.48;1.90;;;22.60;95.30;;;;;;5095587;28;20068;-80
2022/06/29 09:37:23;;;;;;;2.03;1.70;;;22.60;94.90;;;;;;5084794;28;20090;-83
2022/06/29 09:39:51;;;;;;;2.20;1.38;;;22.60;95.10;;;;;;5080070;28;20030;-79
2022/06/29 09:42:27;;;;;;;3.80;1.50;;;22.70;95.00;;;;;;5061869;28;20048;-79
2022/06/29 09:44:53;;;;;;;1.95;1.70;;;22.60;94.80;;;;;;5084634;28;20448;-79
2022/06/29 09:47:21;;;;;;;2.65;1.83;;;22.60;94.50;;;;;;5081873;28;20059;-79
2022/06/29 09:49:48;;;;;;;1.70;1.45;;;22.40;94.50;;;;;;5087442;28;20115;-81
2022/06/29 09:52:15;;;;;;;2.33;1.70;;;22.30;94.50;;;;;;5083433;28;20108;-82
2022/06/29 09:54:59;;;;;;;5.47;1.55;;;22.30;94.50;;;;;;5078748;28;20077;-79
2022/06/29 09:57:29;;;;;;;1.92;1.60;;;22.10;94.60;;;;;;5082250;28;20081;-79
2022/06/29 10:02:47;;;;;;;1.88;1.70;;;22.20;94.50;;;;;;5099146;28;20397;-81
2022/06/29 10:05:17;;;;;;;2.95;1.63;;;22.20;94.80;;;;;;5089082;28;20029;-79
2022/06/29 10:07:47;;;;;;;2.15;1.40;;;22.20;95.40;;;;;;5100737;28;20447;-81
2022/06/29 10:10:16;;;;;;;2.75;1.83;;;22.40;95.10;;;;;;5095228;28;20027;-78
2022/06/29 10:16:00;;;;;;;2.88;1.77;;;22.70;94.90;;;;;;5071988;28;20039;-79
2022/06/29 10:18:54;;;;;;;2.33;1.60;;;22.80;94.10;;;;;;5072251;28;20031;-79
2022/06/29 10:21:28;;;;;;;2.75;2.10;;;22.90;93.90;;;;;;5072409;28;20535;-82
2022/06/29 10:23:56;;;;;;;1.50;1.40;;;23.00;93.80;;;;;;5072412;28;20033;-80
2022/06/29 10:26:35;;;;;;;2.53;1.90;;;23.20;94.50;;;;;;5053451;28;20035;-78
2022/06/29 10:29:09;;;;;;;4.40;2.10;;;23.40;94.50;;;;;;5072192;28;20065;-78
2022/06/29 10:31:50;;;;;;;2.70;1.50;;;23.80;93.80;;;;;;5071621;28;20025;-78
2022/06/29 10:34:30;;;;;;;2.60;1.88;;;24.20;93.70;;;;;;5072206;28;20111;-81
2022/06/29 10:37:02;;;;;;;2.10;1.70;;;24.60;92.70;;;;;;5078637;28;20499;-79
2022/06/29 10:39:51;;;;;;;1.70;1.57;;;24.90;91.70;;;;;;5088656;28;20024;-79
2022/06/29 10:45:08;;;;;;;8.50;1.98;;;25.40;90.60;;;;;;5084373;28;20063;-79
2022/06/29 10:47:34;;;;;;;2.03;1.83;;;25.60;91.20;;;;;;5103827;28;20031;-78
2022/06/29 10:50:21;;;;;;;2.08;1.50;;;25.80;90.50;;;;;;5111171;28;20418;-79
2022/06/29 10:52:48;;;;;;;4.55;1.80;;;26.00;90.90;;;;;;5066896;28;20031;-78
2022/06/29 10:55:15;;;;;;;5.13;2.28;;;26.10;89.50;;;;;;5112340;28;20039;-79
2022/06/29 10:57:44;;;;;;;2.00;1.73;;;26.20;90.00;;;;;;5094684;28;20478;-79
2022/06/29 11:00:26;;;;;;;2.55;1.95;;;26.20;89.00;;;;;;5070721;28;20081;-80
2022/06/29 11:02:52;;;;;;;3.97;2.77;;;26.20;91.10;;;;;;5071642;28;20032;-79
2022/06/29 11:05:18;;;;;;;4.30;2.35;;;26.40;90.30;;;;;;5085935;28;21091;-79
2022/06/29 11:13:30;;;;;;;2.33;1.80;;;27.30;90.00;;;;;;5090276;28;20315;-79
2022/06/29 11:15:57;;;;;;;2.30;1.92;;;27.70;88.70;;;;;;5090806;28;20032;-81
2022/06/29 11:18:28;;;;;;;2.67;2.17;;;27.80;87.10;;;;;;5090833;28;20062;-78
2022/06/29 11:20:55;;;;;;;4.32;2.88;;;27.80;86.70;;;;;;5092023;28;20457;-80
2022/06/29 11:23:29;;;;;;;2.38;2.00;;;27.90;86.60;;;;;;5092395;28;20175;-78
2022/06/29 11:25:56;;;;;;;4.40;2.50;;;28.00;86.30;;;;;;5070811;28;20393;-80
2022/06/29 11:28:32;;;;;;;3.47;3.00;;;28.00;85.30;;;;;;5072173;28;20025;-79
2022/06/29 11:31:04;;;;;;;2.97;2.50;;;27.80;83.80;;;;;;5079377;28;20031;-78
2022/06/29 11:33:40;;;;;;;3.67;2.65;;;27.50;85.00;;;;;;5070558;28;20470;-80
2022/06/29 11:36:08;;;;;;;4.20;2.55;;;27.30;87.30;;;;;;5078136;28;20061;-79
2022/06/29 11:38:43;;;;;;;3.47;2.97;;;27.20;87.70;;;;;;5074722;28;20035;-80
2022/06/29 11:41:26;;;;;;;4.28;3.33;;;27.30;87.90;;;;;;5067396;28;20028;-79
2022/06/29 11:44:05;;;;;;;5.80;4.38;;;27.50;87.10;;;;;;5105712;28;20058;-82
2022/06/29 11:46:38;;;;;;;4.80;3.55;;;27.50;84.80;;;;;;5088539;28;20016;-79
2022/06/29 11:51:57;;;;;;;4.13;3.72;;;27.00;88.10;;;;;;5086178;28;20591;-80
2022/06/29 11:54:41;;;;;;;4.82;4.20;;;26.90;88.40;;;;;;5086198;28;20131;-78
2022/06/29 11:57:12;;;;;;;5.70;4.45;;;26.80;87.90;;;;;;5063337;28;20033;-78
2022/06/29 11:59:39;;;;;;;5.05;4.38;;;26.60;87.10;;;;;;5060675;28;20025;-81
2022/06/29 12:02:05;;;;;;;6.82;3.92;;;26.40;88.20;;;;;;5082268;28;20030;-79
2022/06/29 12:04:33;;;;;;;4.95;4.32;;;26.30;89.10;;;;;;5078602;28;20095;-80
2022/06/29 12:07:07;;;;;;;4.45;3.80;;;26.10;89.20;;;;;;5073581;28;20442;-81
2022/06/29 12:09:33;;;;;;;5.95;4.82;;;26.00;89.70;;;;;;5088330;28;20036;-82
2022/06/29 12:11:58;;;;;;;6.00;4.53;;;25.70;90.30;;;;;;5089294;28;20123;-79
2022/06/29 12:14:24;;;;;;;5.00;4.50;;;25.70;90.70;;;;;;5090194;28;20036;-78
2022/06/29 12:16:49;;;;;;;6.07;4.50;;;25.80;90.60;;;;;;5069456;28;20505;-80
2022/06/29 12:19:15;;;;;;;5.03;4.38;;;25.70;90.80;;;;;;5103065;28;20393;-78
2022/06/29 12:21:41;;;;;;;6.20;4.78;;;25.70;91.20;;;;;;5058395;28;20024;-80
2022/06/29 12:24:06;;;;;;;5.72;4.40;;;25.70;90.60;;;;;;5101765;28;20111;-79
2022/06/29 12:26:32;;;;;;;6.93;4.20;;;25.80;90.70;;;;;;5087278;28;20085;-80
2022/06/29 12:28:57;;;;;;;5.57;4.50;;;25.80;91.10;;;;;;5083379;28;20031;-80
2022/06/29 12:31:23;;;;;;;5.22;4.72;;;25.80;90.80;;;;;;5086285;28;20032;-78
2022/06/29 12:33:49;;;;;;;5.80;4.78;;;25.80;90.70;;;;;;5086902;28;20501;-80
2022/06/29 12:36:14;;;;;;;6.05;5.03;;;25.70;90.70;;;;;;5077773;28;20027;-79
2022/06/29 12:38:40;;;;;;;6.72;5.38;;;25.60;90.80;;;;;;5079633;28;20358;-80
2022/06/29 12:41:06;;;;;;;5.10;4.60;;;25.50;91.10;;;;;;5069701;28;20122;-78
2022/06/29 12:43:31;;;;;;;5.45;4.95;;;25.40;91.90;;;;;;5076312;28;20037;-79
2022/06/29 12:45:58;;;;;;;5.68;5.03;;;25.50;91.60;;;;;;5082520;28;20028;-81
2022/06/29 12:48:23;;;;;;;5.70;5.07;;;25.50;91.70;;;;;;5072459;28;20794;-80
2022/06/29 12:50:49;;;;;;;5.40;4.90;;;25.60;91.50;;;;;;5089590;28;20095;-78
2022/06/29 12:53:14;;;;;;;9.18;5.45;;;25.70;91.50;;;;;;5073566;28;20031;-79
2022/06/29 12:55:40;;;;;;;6.00;4.82;;;25.60;91.10;;;;;;5082461;28;20040;-79
2022/06/29 12:58:05;;;;;;;5.30;4.80;;;25.60;91.60;;;;;;5076723;28;20059;-81
2022/06/29 13:00:32;;;;;;;5.22;4.53;;;25.60;91.80;;;;;;5080457;28;20082;-80
2022/06/29 13:02:57;;;;;;;5.88;5.22;;;25.60;91.30;;;;;;5089663;28;20032;-79
2022/06/29 13:05:23;;;;;;;6.05;5.40;;;25.80;91.50;;;;;;5091684;28;20031;-80
2022/06/29 13:07:48;;;;;;;6.60;5.38;;;25.80;91.50;;;;;;5075620;28;20054;-79
2022/06/29 13:10:14;;;;;;;8.27;5.22;;;25.80;91.00;;;;;;5093071;28;20523;-80